Time;durP1;ratioP1;P1;durP2;ratioP2;P2;SDS_P1;SDS_P2;PMS_P1;PMS_P2;Temp;Humidity;BMP_temperature;BMP_pressure;BME280_temperature;BME280_humidity;BME280_pressure;Samples;Min_cycle;Max_cycle;Signal;HPM_P1;HPM_P2
2022/03/07 00:01:40;;;;;;;15.87;11.87;;;1.60;99.90;;;;;;5024861;28;20550;-38
2022/03/07 00:04:06;;;;;;;15.27;12.20;;;1.50;99.90;;;;;;5026464;28;20433;-38
2022/03/07 00:06:31;;;;;;;15.67;12.00;;;1.60;99.90;;;;;;5010784;28;20438;-38
2022/03/07 00:08:57;;;;;;;15.10;12.20;;;1.40;99.90;;;;;;5023342;28;20276;-38
2022/03/07 00:11:23;;;;;;;15.97;13.17;;;1.70;99.90;;;;;;5025755;28;20201;-37
2022/03/07 00:13:48;;;;;;;19.80;13.17;;;1.40;99.90;;;;;;5027226;28;20206;-38
2022/03/07 00:16:15;;;;;;;16.00;12.90;;;1.60;99.90;;;;;;5026211;28;20268;-39
2022/03/07 00:18:40;;;;;;;18.07;13.60;;;1.80;99.90;;;;;;4993345;28;20187;-37
2022/03/07 00:21:07;;;;;;;17.63;13.53;;;1.40;99.90;;;;;;5015070;28;20449;-38
2022/03/07 00:23:33;;;;;;;16.07;12.30;;;1.50;99.90;;;;;;5022905;28;20189;-38
2022/03/07 00:25:58;;;;;;;14.50;11.77;;;1.80;99.90;;;;;;5025600;28;20413;-38
2022/03/07 00:28:24;;;;;;;16.00;12.60;;;1.50;99.90;;;;;;5027062;28;20195;-38
2022/03/07 00:30:50;;;;;;;17.03;13.70;;;1.50;99.90;;;;;;5026857;28;20858;-39
2022/03/07 00:33:16;;;;;;;17.00;12.13;;;1.70;99.90;;;;;;5026806;28;20645;-37
2022/03/07 00:35:42;;;;;;;15.67;12.73;;;1.70;99.90;;;;;;5019157;28;20319;-40
2022/03/07 00:38:08;;;;;;;15.17;12.03;;;1.60;99.90;;;;;;5023074;28;20410;-37
2022/03/07 00:40:33;;;;;;;17.27;13.57;;;1.80;99.90;;;;;;5026414;28;20490;-38
2022/03/07 00:42:59;;;;;;;15.80;12.63;;;1.70;99.90;;;;;;5026816;28;20194;-39
2022/03/07 00:45:25;;;;;;;13.47;12.00;;;1.80;99.90;;;;;;5025705;28;20195;-38
2022/03/07 00:47:51;;;;;;;13.60;11.07;;;1.90;99.90;;;;;;5026421;28;20472;-37
2022/03/07 00:50:16;;;;;;;17.93;11.70;;;1.60;99.90;;;;;;5020974;28;20183;-38
2022/03/07 00:52:42;;;;;;;16.07;12.23;;;1.70;99.90;;;;;;5020363;28;20460;-39
2022/03/07 00:55:09;;;;;;;18.77;13.20;;;1.60;99.90;;;;;;5026791;28;20195;-38
2022/03/07 00:57:35;;;;;;;18.73;12.40;;;1.60;99.90;;;;;;5025952;28;21711;-40
2022/03/07 01:00:02;;;;;;;14.57;11.90;;;1.50;99.90;;;;;;5025609;28;20516;-38
2022/03/07 01:02:28;;;;;;;17.90;13.07;;;1.70;99.90;;;;;;5025114;28;20421;-39
2022/03/07 01:04:55;;;;;;;16.47;12.70;;;1.90;99.90;;;;;;5025339;28;20959;-37
2022/03/07 01:07:22;;;;;;;17.70;12.77;;;1.70;99.90;;;;;;5019887;28;20194;-39
2022/03/07 01:09:47;;;;;;;15.77;11.77;;;1.80;99.90;;;;;;5024864;28;20857;-39
2022/03/07 01:12:13;;;;;;;16.00;12.27;;;1.90;99.90;;;;;;5026864;28;20457;-38
2022/03/07 01:14:39;;;;;;;17.13;12.20;;;1.70;99.90;;;;;;5026655;28;20189;-40
2022/03/07 01:17:04;;;;;;;26.83;13.13;;;1.70;99.90;;;;;;5026453;28;20200;-40
2022/03/07 01:19:30;;;;;;;16.00;12.03;;;1.60;99.90;;;;;;5026530;28;20182;-40
2022/03/07 01:21:56;;;;;;;14.17;11.97;;;1.60;99.90;;;;;;5015766;28;20271;-37
2022/03/07 01:24:21;;;;;;;15.00;12.20;;;1.60;99.90;;;;;;5025354;28;20240;-37
2022/03/07 01:26:47;;;;;;;14.50;12.20;;;1.60;99.90;;;;;;5025274;28;20190;-38
2022/03/07 01:29:13;;;;;;;17.33;12.37;;;1.40;99.90;;;;;;5026086;28;20210;-39
2022/03/07 01:31:39;;;;;;;16.40;12.77;;;1.50;99.90;;;;;;5024299;28;20182;-40
2022/03/07 01:34:04;;;;;;;14.30;12.00;;;1.50;99.90;;;;;;5026617;28;20499;-38
2022/03/07 01:36:30;;;;;;;17.50;12.80;;;1.60;99.90;;;;;;5017714;28;20191;-38
2022/03/07 01:38:56;;;;;;;14.80;12.20;;;1.60;99.90;;;;;;5025050;28;20273;-38
2022/03/07 01:41:21;;;;;;;15.27;12.70;;;1.40;99.90;;;;;;5024485;28;20661;-38
2022/03/07 01:43:47;;;;;;;15.37;12.60;;;1.50;99.90;;;;;;5026440;28;20201;-40
2022/03/07 01:46:13;;;;;;;14.00;11.20;;;1.50;99.90;;;;;;5026135;28;20321;-40
2022/03/07 01:48:39;;;;;;;13.67;11.43;;;1.70;99.90;;;;;;5026564;28;20543;-38
2022/03/07 01:51:07;;;;;;;20.33;13.87;;;1.60;99.90;;;;;;5023079;28;20222;-40
2022/03/07 01:53:33;;;;;;;14.43;12.47;;;1.70;99.90;;;;;;5024486;28;20461;-40
2022/03/07 01:55:58;;;;;;;15.70;12.30;;;1.60;99.90;;;;;;5024771;28;20875;-40
2022/03/07 01:58:24;;;;;;;14.17;12.50;;;1.70;99.90;;;;;;5026254;28;20930;-38
2022/03/07 02:00:50;;;;;;;14.30;12.30;;;1.80;99.90;;;;;;5025255;28;20218;-39
2022/03/07 02:03:15;;;;;;;15.57;12.70;;;1.80;99.90;;;;;;5028939;28;20649;-38
2022/03/07 02:05:42;;;;;;;18.70;12.87;;;1.70;99.90;;;;;;5026147;28;20893;-40
2022/03/07 02:08:08;;;;;;;16.90;13.20;;;1.80;99.90;;;;;;5024010;28;20780;-40
2022/03/07 02:10:34;;;;;;;17.47;13.77;;;1.80;99.90;;;;;;5027797;28;20516;-40
2022/03/07 02:13:00;;;;;;;15.67;12.90;;;1.80;99.90;;;;;;5029190;28;20221;-40
2022/03/07 02:15:25;;;;;;;15.50;13.03;;;1.70;99.90;;;;;;5029637;28;20544;-40
2022/03/07 02:17:51;;;;;;;14.90;12.23;;;1.90;99.90;;;;;;5029613;28;20198;-40
2022/03/07 02:20:17;;;;;;;18.40;13.90;;;1.80;99.90;;;;;;5027829;28;20276;-39
2022/03/07 02:22:43;;;;;;;14.00;12.20;;;1.80;99.90;;;;;;5019007;28;20198;-40
2022/03/07 02:25:09;;;;;;;15.60;13.10;;;1.90;99.90;;;;;;5027314;28;20236;-40
2022/03/07 02:27:34;;;;;;;17.90;13.60;;;2.00;99.90;;;;;;5029263;28;20835;-40
2022/03/07 02:30:03;;;;;;;16.57;13.60;;;2.00;99.90;;;;;;5028478;28;20649;-39
2022/03/07 02:32:28;;;;;;;21.13;14.57;;;1.90;99.90;;;;;;5029172;28;20632;-39
2022/03/07 02:34:54;;;;;;;17.87;13.73;;;1.90;99.90;;;;;;5029463;28;20417;-40
2022/03/07 02:37:20;;;;;;;16.80;12.30;;;2.00;99.90;;;;;;5015337;28;20187;-40
2022/03/07 02:39:46;;;;;;;16.90;12.50;;;1.80;99.90;;;;;;5027984;28;20686;-39
2022/03/07 02:42:12;;;;;;;16.93;14.10;;;1.90;99.90;;;;;;5028988;28;20673;-39
2022/03/07 02:44:38;;;;;;;15.03;12.70;;;1.90;99.90;;;;;;5029224;28;20794;-39
2022/03/07 02:47:04;;;;;;;21.50;13.70;;;1.80;99.90;;;;;;5029361;28;20433;-39
2022/03/07 02:49:30;;;;;;;19.50;13.47;;;1.70;99.90;;;;;;5029284;28;20425;-39
2022/03/07 02:51:56;;;;;;;15.23;12.97;;;1.70;99.90;;;;;;5017878;28;20962;-40
2022/03/07 02:54:22;;;;;;;15.97;13.23;;;1.70;99.90;;;;;;5024242;28;20424;-40
2022/03/07 02:56:48;;;;;;;16.90;13.13;;;1.80;99.90;;;;;;5029031;28;20621;-39
2022/03/07 02:59:14;;;;;;;17.83;12.80;;;1.70;99.90;;;;;;5028372;28;20693;-39
2022/03/07 03:01:39;;;;;;;15.37;12.90;;;2.00;99.90;;;;;;5028357;28;20195;-40
2022/03/07 03:04:05;;;;;;;17.47;13.30;;;1.80;99.90;;;;;;5028521;28;20773;-40
2022/03/07 03:06:31;;;;;;;20.47;13.50;;;1.60;99.90;;;;;;5021386;28;20512;-40
2022/03/07 03:08:58;;;;;;;17.67;13.23;;;1.70;99.90;;;;;;5026497;28;20202;-40
2022/03/07 03:11:23;;;;;;;19.43;12.87;;;1.90;99.90;;;;;;5027732;28;20417;-40
2022/03/07 03:13:49;;;;;;;16.87;12.70;;;1.60;99.90;;;;;;5025766;28;20234;-40
2022/03/07 03:16:14;;;;;;;18.27;12.80;;;1.70;99.90;;;;;;5028420;28;20195;-40
2022/03/07 03:18:40;;;;;;;17.43;12.90;;;1.80;99.90;;;;;;5027026;28;20664;-41
2022/03/07 03:21:06;;;;;;;17.03;12.80;;;2.00;99.90;;;;;;5024552;28;20222;-40
2022/03/07 03:23:31;;;;;;;18.67;12.00;;;1.60;99.90;;;;;;5020083;28;20213;-40
2022/03/07 03:25:57;;;;;;;17.40;11.87;;;1.90;99.90;;;;;;5026173;28;20259;-40
2022/03/07 03:28:23;;;;;;;15.60;12.50;;;1.90;99.90;;;;;;5026676;28;20710;-40
2022/03/07 03:30:51;;;;;;;16.40;11.90;;;1.60;99.90;;;;;;5027359;28;20207;-39
2022/03/07 03:33:16;;;;;;;17.53;11.80;;;1.70;99.90;;;;;;5027965;28;20499;-40
2022/03/07 03:35:42;;;;;;;13.50;11.27;;;1.60;99.90;;;;;;5028272;28;20912;-40
2022/03/07 03:38:10;;;;;;;16.47;12.67;;;1.70;99.90;;;;;;5013194;28;20193;-39
2022/03/07 03:40:37;;;;;;;15.97;12.07;;;2.00;99.90;;;;;;5026851;28;20276;-40
2022/03/07 03:43:03;;;;;;;15.27;11.93;;;1.80;99.90;;;;;;5028147;28;20436;-39
2022/03/07 03:45:29;;;;;;;14.70;11.80;;;2.10;99.90;;;;;;5027871;28;20428;-39
2022/03/07 03:47:55;;;;;;;16.80;11.63;;;1.80;99.90;;;;;;5028247;28;20951;-39
2022/03/07 03:50:21;;;;;;;13.07;11.13;;;2.00;99.90;;;;;;5027437;28;20776;-40
2022/03/07 03:52:46;;;;;;;13.23;10.90;;;2.20;99.90;;;;;;5016648;28;20959;-39
2022/03/07 03:55:12;;;;;;;13.70;11.30;;;2.10;99.90;;;;;;5027846;28;20444;-40
2022/03/07 03:57:41;;;;;;;13.07;11.67;;;2.40;99.90;;;;;;5027653;28;20210;-39
2022/03/07 04:00:09;;;;;;;14.40;11.03;;;2.40;99.90;;;;;;5027034;28;20887;-40
2022/03/07 04:02:36;;;;;;;16.00;10.53;;;2.30;99.90;;;;;;5025952;28;20429;-39
2022/03/07 04:05:02;;;;;;;15.23;12.10;;;2.50;99.90;;;;;;5027698;28;20437;-40
2022/03/07 04:07:28;;;;;;;13.13;11.73;;;2.30;99.90;;;;;;5018996;28;20447;-40
2022/03/07 04:09:54;;;;;;;14.53;11.17;;;2.30;99.90;;;;;;5025331;28;20524;-40
2022/03/07 04:12:19;;;;;;;15.80;11.20;;;2.40;99.90;;;;;;5027218;28;20222;-39
2022/03/07 04:14:45;;;;;;;12.57;10.30;;;2.30;99.90;;;;;;5027622;28;20297;-39
2022/03/07 04:17:10;;;;;;;13.53;10.83;;;2.20;99.90;;;;;;5027298;28;20221;-40
2022/03/07 04:19:36;;;;;;;11.80;10.10;;;2.40;99.90;;;;;;5027018;28;20187;-39
2022/03/07 04:22:02;;;;;;;13.57;12.10;;;2.40;99.90;;;;;;5019677;28;21010;-39
2022/03/07 04:24:30;;;;;;;14.43;11.03;;;2.20;99.90;;;;;;5021565;28;20290;-40
2022/03/07 04:26:56;;;;;;;14.87;11.63;;;2.60;99.90;;;;;;5027472;28;20464;-40
2022/03/07 04:29:22;;;;;;;13.77;11.20;;;2.30;99.90;;;;;;5027124;28;20483;-40
2022/03/07 04:31:48;;;;;;;15.57;11.87;;;2.20;99.90;;;;;;5026470;28;20417;-40
2022/03/07 04:34:13;;;;;;;17.57;12.43;;;2.30;99.90;;;;;;5026981;28;20190;-40
2022/03/07 04:36:40;;;;;;;15.50;11.20;;;2.40;99.90;;;;;;5024177;28;20218;-40
2022/03/07 04:39:08;;;;;;;14.00;11.67;;;2.20;99.90;;;;;;5020902;28;20954;-40
2022/03/07 04:41:34;;;;;;;13.37;11.23;;;2.10;99.90;;;;;;5026251;28;20435;-40
2022/03/07 04:44:00;;;;;;;15.73;11.33;;;2.30;99.90;;;;;;5027148;28;20466;-40
2022/03/07 04:46:26;;;;;;;15.40;11.50;;;1.90;99.90;;;;;;5026937;28;20860;-40
2022/03/07 04:48:52;;;;;;;12.30;10.70;;;2.20;99.90;;;;;;5026776;28;20447;-39
2022/03/07 04:51:18;;;;;;;15.40;11.60;;;2.10;99.90;;;;;;5026198;28;20976;-39
2022/03/07 04:53:43;;;;;;;12.67;11.27;;;2.30;99.90;;;;;;5009152;28;20716;-40
2022/03/07 04:56:09;;;;;;;13.13;11.37;;;2.30;99.90;;;;;;5027013;28;20634;-40
2022/03/07 04:58:35;;;;;;;13.77;11.73;;;2.10;99.90;;;;;;5026582;28;20197;-39
2022/03/07 05:01:01;;;;;;;13.93;11.80;;;2.20;99.90;;;;;;5026064;28;20425;-40
2022/03/07 05:03:27;;;;;;;12.20;10.60;;;2.20;99.90;;;;;;5026747;28;20429;-40
2022/03/07 05:05:53;;;;;;;14.13;11.07;;;2.30;99.90;;;;;;5025532;28;20432;-40
2022/03/07 05:08:19;;;;;;;12.47;10.67;;;2.10;99.90;;;;;;5013023;28;20446;-40
2022/03/07 05:10:44;;;;;;;12.90;10.80;;;2.20;99.90;;;;;;5025124;28;20311;-40
2022/03/07 05:13:10;;;;;;;16.60;11.70;;;2.00;99.90;;;;;;5025234;28;20228;-40
2022/03/07 05:15:36;;;;;;;14.00;10.80;;;2.20;99.90;;;;;;5026640;28;20202;-39
2022/03/07 05:18:03;;;;;;;17.33;11.53;;;2.00;99.90;;;;;;5026732;28;20439;-41
2022/03/07 05:20:28;;;;;;;15.80;12.47;;;2.10;99.90;;;;;;5025868;28;20437;-40
2022/03/07 05:22:54;;;;;;;15.47;11.80;;;2.10;99.90;;;;;;5018686;28;20990;-40
2022/03/07 05:25:20;;;;;;;17.03;11.50;;;2.20;99.90;;;;;;5023163;28;20222;-40
2022/03/07 05:27:47;;;;;;;13.33;10.60;;;2.30;99.90;;;;;;5026690;28;20429;-40
2022/03/07 05:30:18;;;;;;;12.00;10.00;;;2.20;99.90;;;;;;5025901;28;20436;-40
2022/03/07 05:32:45;;;;;;;14.10;10.77;;;2.20;99.90;;;;;;5026446;28;20469;-40
2022/03/07 05:35:12;;;;;;;13.27;11.13;;;2.10;99.90;;;;;;5026397;28;20425;-40
2022/03/07 05:37:38;;;;;;;15.13;12.33;;;2.20;99.90;;;;;;5021966;28;20550;-39
2022/03/07 05:40:06;;;;;;;11.37;10.07;;;2.10;99.90;;;;;;5024847;28;20424;-40
2022/03/07 05:42:33;;;;;;;12.20;10.60;;;2.10;99.90;;;;;;5029963;28;20549;-39
2022/03/07 05:44:58;;;;;;;13.90;10.80;;;2.20;99.90;;;;;;5026956;28;20523;-39
2022/03/07 05:47:24;;;;;;;14.20;10.53;;;2.10;99.90;;;;;;5024350;28;20543;-39
2022/03/07 05:49:50;;;;;;;13.13;10.60;;;2.30;99.90;;;;;;5020242;28;20640;-38
2022/03/07 05:52:15;;;;;;;11.70;9.90;;;2.30;99.90;;;;;;5026665;28;20214;-39
2022/03/07 05:54:41;;;;;;;13.57;10.87;;;2.30;99.90;;;;;;5024752;28;20222;-39
2022/03/07 05:57:07;;;;;;;12.80;10.97;;;2.20;99.90;;;;;;5029551;28;20747;-39
2022/03/07 05:59:33;;;;;;;11.50;9.87;;;2.30;99.90;;;;;;5029721;28;20214;-39
2022/03/07 06:01:58;;;;;;;14.30;10.60;;;2.10;99.90;;;;;;5029740;28;20186;-39
2022/03/07 06:04:24;;;;;;;13.57;11.10;;;2.00;99.90;;;;;;5029222;28;20435;-39
2022/03/07 06:06:50;;;;;;;12.30;9.50;;;2.10;99.90;;;;;;5029264;28;20445;-39
2022/03/07 06:09:16;;;;;;;11.40;10.20;;;2.20;99.90;;;;;;5016802;28;20198;-39
2022/03/07 06:11:42;;;;;;;11.57;9.90;;;2.30;99.90;;;;;;5028133;28;20428;-39
2022/03/07 06:14:08;;;;;;;13.80;10.83;;;2.00;99.90;;;;;;5029400;28;20610;-39
2022/03/07 06:16:34;;;;;;;11.53;10.17;;;2.20;99.90;;;;;;5029584;28;20461;-39
2022/03/07 06:18:59;;;;;;;11.60;9.57;;;2.20;99.90;;;;;;5030786;28;20213;-39
2022/03/07 06:21:25;;;;;;;10.77;9.37;;;2.30;99.90;;;;;;5026900;28;20260;-39
2022/03/07 06:23:51;;;;;;;10.47;9.00;;;2.40;99.90;;;;;;5018334;28;20190;-39
2022/03/07 06:26:17;;;;;;;12.07;9.63;;;2.40;99.90;;;;;;5029579;28;20218;-39
2022/03/07 06:28:42;;;;;;;11.73;9.53;;;2.50;99.90;;;;;;5028156;28;20193;-39
2022/03/07 06:31:08;;;;;;;11.50;9.13;;;2.40;99.90;;;;;;5028965;28;20221;-39
2022/03/07 06:33:33;;;;;;;13.63;9.43;;;2.40;99.90;;;;;;5029012;28;20272;-39
2022/03/07 06:35:59;;;;;;;11.70;9.17;;;2.40;99.90;;;;;;5029440;28;20205;-39
2022/03/07 06:38:25;;;;;;;9.10;8.20;;;2.60;99.90;;;;;;5021480;28;20191;-40
2022/03/07 06:40:51;;;;;;;15.30;8.93;;;2.60;99.90;;;;;;5021042;28;20189;-39
2022/03/07 06:43:17;;;;;;;9.33;8.30;;;2.50;99.90;;;;;;5028868;28;20190;-39
2022/03/07 06:45:43;;;;;;;10.10;9.07;;;2.60;99.90;;;;;;5028200;28;20428;-39
2022/03/07 06:48:08;;;;;;;10.90;8.13;;;2.70;99.90;;;;;;5028444;28;20799;-39
2022/03/07 06:50:34;;;;;;;11.83;9.37;;;2.60;99.90;;;;;;5027952;28;20229;-39
2022/03/07 06:53:00;;;;;;;11.90;9.57;;;2.70;99.90;;;;;;5024097;28;20386;-39
2022/03/07 06:55:26;;;;;;;10.27;9.10;;;3.00;99.90;;;;;;5023935;28;20186;-39
2022/03/07 06:57:52;;;;;;;11.60;8.97;;;2.90;99.90;;;;;;5029054;28;20867;-39
2022/03/07 07:00:18;;;;;;;9.17;7.83;;;2.60;99.90;;;;;;5027795;28;20452;-39
2022/03/07 07:02:45;;;;;;;8.67;7.87;;;3.10;99.90;;;;;;5035093;28;20232;-39
2022/03/07 07:05:13;;;;;;;10.20;8.13;;;3.30;99.90;;;;;;5040653;28;20766;-39
2022/03/07 07:07:39;;;;;;;8.10;7.30;;;3.10;99.90;;;;;;5025629;28;20429;-39
2022/03/07 07:10:07;;;;;;;10.93;7.17;;;3.10;99.90;;;;;;5018483;28;20456;-39
2022/03/07 07:12:34;;;;;;;8.20;7.30;;;3.20;99.50;;;;;;5026327;28;20460;-39
2022/03/07 07:15:00;;;;;;;9.87;7.10;;;3.30;98.90;;;;;;5028681;28;20425;-39
2022/03/07 07:17:25;;;;;;;8.00;6.60;;;3.60;98.30;;;;;;5026345;28;20440;-39
2022/03/07 07:19:51;;;;;;;7.80;7.00;;;3.60;97.60;;;;;;5026863;28;20248;-39
2022/03/07 07:22:17;;;;;;;7.93;6.97;;;3.80;98.00;;;;;;5031044;28;20193;-39
2022/03/07 07:24:43;;;;;;;9.13;7.10;;;3.60;97.70;;;;;;5015435;28;20297;-39
2022/03/07 07:27:09;;;;;;;7.60;6.83;;;3.80;98.00;;;;;;5028091;28;20197;-39
2022/03/07 07:29:35;;;;;;;7.80;6.77;;;3.60;97.60;;;;;;5028227;28;20425;-39
2022/03/07 07:32:02;;;;;;;7.37;6.10;;;3.90;97.50;;;;;;5027543;28;20479;-39
2022/03/07 07:34:28;;;;;;;7.20;6.50;;;3.70;96.70;;;;;;5028314;28;20195;-39
2022/03/07 07:36:54;;;;;;;6.37;5.77;;;3.80;95.70;;;;;;5028049;28;20425;-39
2022/03/07 07:39:19;;;;;;;6.10;5.50;;;4.00;95.90;;;;;;5019612;28;20962;-39
2022/03/07 07:41:45;;;;;;;6.83;5.30;;;3.90;96.10;;;;;;5027580;28;20194;-39
2022/03/07 07:44:11;;;;;;;6.13;5.33;;;4.00;96.60;;;;;;5026153;28;20283;-40
2022/03/07 07:46:37;;;;;;;6.43;5.60;;;4.10;96.70;;;;;;5027688;28;20433;-40
2022/03/07 07:49:03;;;;;;;6.63;5.43;;;4.10;96.40;;;;;;5027207;28;20215;-39
2022/03/07 07:51:28;;;;;;;7.03;5.87;;;4.60;95.50;;;;;;5029981;28;20183;-39
2022/03/07 07:53:54;;;;;;;6.57;5.10;;;4.80;94.80;;;;;;5021723;28;20249;-39
2022/03/07 07:56:20;;;;;;;6.67;5.00;;;5.30;93.70;;;;;;5025996;28;20194;-39
2022/03/07 07:58:45;;;;;;;8.03;5.57;;;5.30;92.50;;;;;;5026478;28;20646;-39
2022/03/07 08:01:11;;;;;;;6.50;4.97;;;5.20;92.50;;;;;;5028312;28;20269;-39
2022/03/07 08:03:37;;;;;;;7.47;5.27;;;5.40;92.70;;;;;;5026808;28;20278;-39
2022/03/07 08:06:03;;;;;;;5.00;4.50;;;5.40;92.50;;;;;;5026834;28;20429;-39
2022/03/07 08:08:28;;;;;;;5.97;5.23;;;5.60;91.90;;;;;;5022912;28;20691;-40
2022/03/07 08:10:55;;;;;;;5.27;4.77;;;5.90;91.20;;;;;;5019173;28;20194;-39
2022/03/07 08:13:21;;;;;;;6.30;4.90;;;6.20;90.20;;;;;;5026655;28;20210;-40
2022/03/07 08:15:46;;;;;;;5.23;4.73;;;6.10;90.00;;;;;;5027131;28;20491;-39
2022/03/07 08:18:12;;;;;;;5.23;4.73;;;6.20;89.30;;;;;;5027390;28;20426;-39
2022/03/07 08:20:38;;;;;;;5.57;4.90;;;6.20;87.70;;;;;;5026665;28;20226;-39
2022/03/07 08:23:04;;;;;;;5.20;4.70;;;6.40;87.30;;;;;;5021630;28;20197;-39
2022/03/07 08:25:32;;;;;;;5.07;4.57;;;6.10;86.30;;;;;;5015684;28;20194;-39
2022/03/07 08:27:59;;;;;;;6.00;5.50;;;6.30;86.00;;;;;;5027008;28;20691;-40
2022/03/07 08:30:27;;;;;;;5.67;5.17;;;6.50;86.10;;;;;;5026196;28;20512;-39
2022/03/07 08:32:53;;;;;;;6.50;5.90;;;6.60;84.30;;;;;;5026762;28;20638;-39
2022/03/07 08:35:19;;;;;;;7.03;5.17;;;6.70;84.30;;;;;;5033921;28;20439;-39
2022/03/07 08:37:47;;;;;;;7.27;5.50;;;6.70;84.60;;;;;;5046977;28;20423;-39
2022/03/07 08:40:15;;;;;;;4.80;4.40;;;6.80;85.80;;;;;;5020304;28;20425;-39
2022/03/07 08:42:42;;;;;;;6.40;5.30;;;6.80;83.90;;;;;;5026630;28;20504;-39
2022/03/07 08:45:08;;;;;;;6.13;5.50;;;6.90;82.30;;;;;;5025210;28;20764;-39
2022/03/07 08:47:35;;;;;;;6.03;5.20;;;7.30;82.60;;;;;;5026016;28;20483;-39
2022/03/07 08:50:01;;;;;;;6.70;4.70;;;7.20;82.70;;;;;;5026027;28;20428;-39
2022/03/07 08:52:26;;;;;;;5.80;5.30;;;7.20;80.20;;;;;;5026892;28;20487;-40
2022/03/07 08:54:52;;;;;;;5.97;5.47;;;7.20;80.50;;;;;;5020143;28;20440;-39
2022/03/07 08:57:18;;;;;;;5.43;4.93;;;7.30;81.40;;;;;;5026127;28;20210;-39
2022/03/07 08:59:43;;;;;;;5.43;5.00;;;7.40;80.70;;;;;;5024872;28;20727;-39
2022/03/07 09:02:10;;;;;;;5.90;5.40;;;7.50;78.70;;;;;;5026562;28;20232;-39
2022/03/07 09:04:42;;;;;;;5.70;5.13;;;7.30;79.10;;;;;;5026693;28;20190;-39
2022/03/07 09:07:08;;;;;;;5.37;4.87;;;6.90;79.30;;;;;;5026667;28;20421;-39
2022/03/07 09:09:35;;;;;;;5.27;4.87;;;7.10;79.00;;;;;;5017311;28;20955;-39
2022/03/07 09:12:02;;;;;;;5.17;4.70;;;7.30;79.20;;;;;;5023789;28;20417;-39
2022/03/07 09:14:28;;;;;;;6.03;5.07;;;7.40;79.60;;;;;;5031328;28;20440;-39
2022/03/07 09:16:54;;;;;;;5.03;4.63;;;7.40;77.80;;;;;;5030686;28;20492;-39
2022/03/07 09:19:20;;;;;;;5.30;4.90;;;7.40;77.70;;;;;;5029431;28;20824;-39
2022/03/07 09:21:46;;;;;;;6.43;4.33;;;7.90;78.30;;;;;;5031860;28;20209;-39
2022/03/07 09:24:11;;;;;;;5.03;4.53;;;8.00;78.50;;;;;;5038858;28;20190;-39
2022/03/07 09:26:38;;;;;;;5.27;4.87;;;8.30;78.10;;;;;;5027165;28;20951;-39
2022/03/07 09:29:04;;;;;;;5.40;4.07;;;8.50;76.70;;;;;;5030832;28;20194;-39
2022/03/07 09:31:30;;;;;;;6.30;4.77;;;8.40;73.60;;;;;;5029999;28;20775;-39
2022/03/07 09:33:56;;;;;;;5.27;4.80;;;8.30;73.60;;;;;;5030404;28;20937;-39
2022/03/07 09:36:22;;;;;;;5.63;5.13;;;8.00;74.60;;;;;;5029308;28;20567;-39
2022/03/07 09:38:50;;;;;;;5.20;4.67;;;8.30;74.90;;;;;;5028822;28;20926;-39
2022/03/07 09:41:19;;;;;;;4.43;4.10;;;8.40;75.80;;;;;;5023244;28;20916;-39
2022/03/07 09:43:47;;;;;;;4.70;4.30;;;8.40;73.20;;;;;;5029103;28;20417;-39
2022/03/07 09:46:16;;;;;;;4.53;4.13;;;8.40;75.50;;;;;;5030624;28;20432;-39
2022/03/07 09:48:43;;;;;;;5.00;4.60;;;8.90;74.40;;;;;;5030296;28;20512;-39
2022/03/07 09:51:09;;;;;;;4.33;3.70;;;9.00;73.60;;;;;;5029835;28;20586;-39
2022/03/07 09:53:35;;;;;;;4.40;4.00;;;8.80;72.80;;;;;;5029813;28;20542;-39
2022/03/07 09:56:01;;;;;;;4.13;3.60;;;9.20;72.10;;;;;;5020444;28;20444;-40
2022/03/07 09:58:26;;;;;;;4.40;3.70;;;9.20;72.80;;;;;;5030015;28;20599;-39
2022/03/07 10:00:52;;;;;;;4.70;3.80;;;9.60;69.70;;;;;;5028377;28;20270;-39
2022/03/07 10:03:18;;;;;;;4.07;3.67;;;9.30;70.10;;;;;;5030154;28;20194;-39
2022/03/07 10:05:48;;;;;;;4.20;3.80;;;9.50;68.30;;;;;;5029233;28;20201;-40
2022/03/07 10:08:29;;;;;;;3.93;3.53;;;9.40;68.80;;;;;;5029937;28;20421;-40
2022/03/07 10:10:56;;;;;;;3.50;3.20;;;9.50;70.20;;;;;;5019120;28;20441;-40
2022/03/07 10:13:24;;;;;;;3.53;3.23;;;9.20;69.40;;;;;;5028605;28;20464;-40
2022/03/07 10:16:01;;;;;;;3.63;3.33;;;9.40;69.50;;;;;;5016841;28;20457;-39
2022/03/07 10:18:28;;;;;;;3.50;3.20;;;9.80;70.70;;;;;;5029673;28;20466;-40
2022/03/07 10:21:01;;;;;;;3.20;3.00;;;9.70;68.90;;;;;;5029392;28;20656;-39
2022/03/07 10:23:27;;;;;;;3.50;3.20;;;10.00;68.10;;;;;;5044505;28;20433;-40
2022/03/07 10:26:05;;;;;;;4.50;4.10;;;10.10;67.60;;;;;;5023994;28;20433;-42
2022/03/07 10:28:36;;;;;;;5.13;3.47;;;10.20;66.80;;;;;;5029794;28;20754;-40
2022/03/07 10:31:13;;;;;;;3.67;3.07;;;10.20;67.60;;;;;;5027950;28;20429;-39
2022/03/07 10:33:38;;;;;;;4.07;3.67;;;10.10;64.50;;;;;;5029929;28;20476;-40
2022/03/07 10:36:04;;;;;;;3.67;3.37;;;10.00;65.30;;;;;;5029870;28;20490;-39
2022/03/07 10:38:30;;;;;;;4.07;3.60;;;9.50;65.80;;;;;;5029826;28;20622;-39
2022/03/07 10:40:55;;;;;;;5.23;4.73;;;9.90;68.40;;;;;;5020415;28;20441;-39
2022/03/07 10:43:22;;;;;;;4.00;3.70;;;9.60;67.10;;;;;;5029529;28;20788;-39
2022/03/07 10:45:53;;;;;;;3.33;3.07;;;9.80;68.40;;;;;;5029419;28;20198;-39
2022/03/07 10:48:20;;;;;;;5.90;3.80;;;9.80;69.50;;;;;;5029842;28;20931;-39
2022/03/07 10:50:51;;;;;;;3.93;3.17;;;10.00;68.20;;;;;;5028795;28;20928;-40
2022/03/07 10:53:17;;;;;;;4.23;3.83;;;10.20;67.70;;;;;;5029408;28;20522;-39
2022/03/07 10:56:00;;;;;;;4.77;3.63;;;10.30;67.50;;;;;;5019222;28;20520;-39
2022/03/07 10:58:27;;;;;;;4.70;4.30;;;10.30;65.80;;;;;;5029265;28;20437;-39
2022/03/07 11:00:55;;;;;;;4.73;4.33;;;10.10;64.00;;;;;;5027407;28;20498;-39
2022/03/07 11:03:25;;;;;;;5.07;3.90;;;9.90;66.00;;;;;;5029310;28;20436;-39
2022/03/07 11:05:51;;;;;;;4.77;4.37;;;10.00;66.60;;;;;;5027991;28;20535;-39
2022/03/07 11:08:20;;;;;;;3.67;3.37;;;10.00;66.40;;;;;;5028886;28;20421;-39
2022/03/07 11:10:48;;;;;;;6.07;3.70;;;9.50;66.70;;;;;;5016653;28;20442;-39
2022/03/07 11:13:16;;;;;;;3.93;3.63;;;9.30;67.60;;;;;;5023799;28;20595;-40
2022/03/07 11:15:43;;;;;;;4.70;3.20;;;9.40;69.60;;;;;;5029016;28;20812;-39
2022/03/07 11:18:14;;;;;;;5.67;4.40;;;9.40;69.60;;;;;;5028731;28;20432;-40
2022/03/07 11:20:44;;;;;;;4.90;4.00;;;9.20;69.80;;;;;;5010494;28;20429;-39
2022/03/07 11:23:17;;;;;;;6.80;3.27;;;9.00;68.70;;;;;;5041654;28;20839;-39
2022/03/07 11:25:44;;;;;;;4.00;3.60;;;8.90;67.60;;;;;;5027889;28;20832;-40
2022/03/07 11:28:11;;;;;;;4.47;3.80;;;9.00;68.00;;;;;;5023317;28;20519;-40
2022/03/07 11:30:43;;;;;;;3.57;3.27;;;9.00;66.70;;;;;;5026788;28;20718;-40
2022/03/07 11:33:11;;;;;;;4.30;3.90;;;8.70;65.20;;;;;;5028408;28;20475;-40
2022/03/07 11:35:41;;;;;;;5.97;4.33;;;8.80;66.50;;;;;;5027470;28;20552;-40
2022/03/07 11:38:18;;;;;;;3.97;3.60;;;8.80;68.10;;;;;;5027149;28;20713;-39
2022/03/07 11:41:11;;;;;;;6.50;3.90;;;8.90;68.40;;;;;;5017634;28;20430;-39
2022/03/07 11:43:56;;;;;;;3.97;3.63;;;9.20;68.80;;;;;;5026226;28;20807;-39
2022/03/07 11:46:29;;;;;;;5.40;4.00;;;9.20;67.80;;;;;;5025575;28;21107;-39
2022/03/07 11:48:55;;;;;;;4.33;3.90;;;9.20;67.60;;;;;;5028405;28;20512;-40
2022/03/07 11:51:24;;;;;;;4.07;3.50;;;9.40;67.30;;;;;;5007267;28;20843;-40
2022/03/07 11:53:51;;;;;;;3.40;3.03;;;9.70;66.40;;;;;;5019779;28;20497;-39
2022/03/07 11:56:24;;;;;;;4.50;4.10;;;9.70;65.60;;;;;;5017168;28;20504;-39
2022/03/07 11:58:53;;;;;;;4.27;3.87;;;9.80;65.90;;;;;;5027728;28;20436;-39
2022/03/07 12:01:20;;;;;;;4.50;4.10;;;10.00;65.80;;;;;;5027241;28;20430;-40
2022/03/07 12:03:47;;;;;;;7.03;4.07;;;10.40;65.60;;;;;;5027780;28;20508;-39
2022/03/07 12:06:15;;;;;;;4.53;4.13;;;10.30;66.00;;;;;;5027996;28;20815;-40
2022/03/07 12:08:57;;;;;;;4.10;3.80;;;10.40;66.70;;;;;;5028214;28;20831;-39
2022/03/07 12:11:34;;;;;;;4.37;3.73;;;10.70;64.40;;;;;;5017368;28;20470;-39
2022/03/07 12:14:09;;;;;;;4.13;3.83;;;10.50;63.80;;;;;;5025306;28;20460;-39
2022/03/07 12:16:38;;;;;;;4.07;3.77;;;10.60;63.10;;;;;;5026740;28;20420;-40
2022/03/07 12:19:09;;;;;;;4.23;3.83;;;10.70;63.50;;;;;;5027639;28;20779;-39
2022/03/07 12:21:37;;;;;;;4.03;3.63;;;10.20;62.30;;;;;;5026794;28;20631;-40
2022/03/07 12:24:05;;;;;;;4.37;3.43;;;10.40;63.00;;;;;;5045142;28;20424;-40
2022/03/07 12:26:30;;;;;;;4.13;3.80;;;10.40;62.90;;;;;;5024607;28;20464;-40
2022/03/07 12:28:56;;;;;;;5.83;3.93;;;10.50;63.80;;;;;;5027503;28;20500;-40
2022/03/07 12:31:22;;;;;;;4.50;3.60;;;10.60;61.80;;;;;;5026802;28;20200;-41
2022/03/07 12:33:48;;;;;;;4.97;4.37;;;10.60;63.90;;;;;;5027523;28;20250;-40
2022/03/07 12:36:16;;;;;;;4.70;3.97;;;10.70;62.70;;;;;;5027081;28;20417;-40
2022/03/07 12:38:50;;;;;;;5.07;3.97;;;10.50;63.20;;;;;;5027623;28;20430;-39
2022/03/07 12:41:19;;;;;;;6.10;4.13;;;10.60;64.00;;;;;;5015749;28;20998;-39
2022/03/07 12:43:45;;;;;;;4.60;4.20;;;10.60;64.40;;;;;;5027065;28;21145;-39